This is the latest recevied weather packets stored in our database for station/object SQ7KHZ-10. If no packets are shown the sender has not sent any weather packets the latest 10 day(s).
| Time | Temp. | Humidity | Pressure | Rain* | Wind** | Luminosity | Snow |
|---|---|---|---|---|---|---|---|
| 1778118177 | 12.78° C | 98% | 1006.3 hPa | 0 mm | - | - | - |
| 1778116965 | 13.33° C | 97% | 1006.3 hPa | 0 mm | - | - | - |
| 1778115753 | 13.89° C | 96% | 1006.5 hPa | 0 mm | - | - | - |
| 1778114539 | 13.89° C | 95% | 1006.4 hPa | 0 mm | - | - | - |
| 1778113336 | 13.89° C | 94% | 1006.4 hPa | 0 mm | - | - | - |
| 1778112131 | 13.89° C | 96% | 1006.5 hPa | 0 mm | - | - | - |
| 1778110917 | 13.89° C | 98% | 1006.1 hPa | 0 mm | - | - | - |
| 1778109716 | 13.89° C | 97% | 1006 hPa | 0.25 mm | - | - | - |
| 1778108514 | 14.44° C | 96% | 1006.1 hPa | 0.25 mm | - | - | - |
| 1778107303 | 15° C | 90% | 1006 hPa | 0.25 mm | - | - | - |
| 1778106096 | 13.89° C | 93% | 1006.1 hPa | 0 mm | - | - | - |
| 1778104888 | 14.44° C | 90% | 1005.8 hPa | 0.76 mm | - | - | - |
| 1778103668 | 13.89° C | 93% | 1005.9 hPa | 0.76 mm | - | - | - |
| 1778102463 | 15.56° C | 85% | 1005.8 hPa | 0.25 mm | - | - | - |
| 1778101258 | 16.67° C | 73% | 1006.1 hPa | 0 mm | - | - | - |
| 1778100013 | 16.67° C | 71% | 1005.9 hPa | 0 mm | - | - | - |
| 1778098808 | 16.11° C | 73% | 1005.9 hPa | 0 mm | - | - | - |
| 1778097606 | 16.11° C | 71% | 1005.9 hPa | 0 mm | - | - | - |
| 1778096394 | 15.56° C | 74% | 1005.8 hPa | 0 mm | - | - | - |
| 1778095183 | 16.11° C | 71% | 1005.6 hPa | 0 mm | - | - | - |
| 1778093959 | 16.67° C | 70% | 1005.6 hPa | 0 mm | - | - | - |
| 1778092747 | 17.22° C | 73% | 1005.4 hPa | 0 mm | - | - | - |
| 1778091535 | 18.33° C | 65% | 1005.2 hPa | 0 mm | - | - | - |
| 1778090323 | 19.44° C | 64% | 1005.2 hPa | 0 mm | - | - | - |
| 1778089099 | 20.56° C | 61% | 1005.1 hPa | 0 mm | - | - | - |
* Rain latest hour (hover to see other rain measurements)
** Current wind speed in m/s (hover to see current wind gust speed)